sensor_id;sensor_type;location;lat;lon;timestamp;P1;durP1;ratioP1;P2;durP2;ratioP2
6412;SDS011;3239;48.714;9.472;2023-08-06T00:00:27;4.20;;;3.23;;
6412;SDS011;3239;48.714;9.472;2023-08-06T00:02:53;4.03;;;3.73;;
6412;SDS011;3239;48.714;9.472;2023-08-06T00:05:18;3.27;;;2.97;;
6412;SDS011;3239;48.714;9.472;2023-08-06T00:07:46;3.83;;;3.50;;
6412;SDS011;3239;48.714;9.472;2023-08-06T00:10:14;6.43;;;3.93;;
6412;SDS011;3239;48.714;9.472;2023-08-06T00:12:40;4.30;;;3.90;;
6412;SDS011;3239;48.714;9.472;2023-08-06T00:15:06;5.10;;;4.67;;
6412;SDS011;3239;48.714;9.472;2023-08-06T00:17:33;5.77;;;5.13;;
6412;SDS011;3239;48.714;9.472;2023-08-06T00:19:59;6.30;;;5.40;;
6412;SDS011;3239;48.714;9.472;2023-08-06T00:22:30;5.23;;;4.73;;
6412;SDS011;3239;48.714;9.472;2023-08-06T00:24:57;6.17;;;5.00;;
6412;SDS011;3239;48.714;9.472;2023-08-06T00:27:23;5.63;;;5.13;;
6412;SDS011;3239;48.714;9.472;2023-08-06T00:29:49;5.80;;;5.27;;
6412;SDS011;3239;48.714;9.472;2023-08-06T00:32:15;7.93;;;5.40;;
6412;SDS011;3239;48.714;9.472;2023-08-06T00:34:41;7.50;;;5.33;;
6412;SDS011;3239;48.714;9.472;2023-08-06T00:37:06;6.90;;;6.27;;
6412;SDS011;3239;48.714;9.472;2023-08-06T00:39:32;5.80;;;5.20;;
6412;SDS011;3239;48.714;9.472;2023-08-06T00:41:58;6.93;;;6.30;;
6412;SDS011;3239;48.714;9.472;2023-08-06T00:44:24;7.27;;;5.90;;
6412;SDS011;3239;48.714;9.472;2023-08-06T00:46:49;5.33;;;4.77;;
6412;SDS011;3239;48.714;9.472;2023-08-06T00:49:15;5.47;;;4.97;;
6412;SDS011;3239;48.714;9.472;2023-08-06T00:51:42;5.30;;;4.90;;
6412;SDS011;3239;48.714;9.472;2023-08-06T00:54:08;5.17;;;4.27;;
6412;SDS011;3239;48.714;9.472;2023-08-06T00:56:35;4.73;;;4.33;;
6412;SDS011;3239;48.714;9.472;2023-08-06T00:59:02;5.23;;;4.73;;
6412;SDS011;3239;48.714;9.472;2023-08-06T01:01:31;4.57;;;3.83;;
6412;SDS011;3239;48.714;9.472;2023-08-06T01:03:57;4.57;;;4.20;;
6412;SDS011;3239;48.714;9.472;2023-08-06T01:06:39;5.80;;;4.00;;
6412;SDS011;3239;48.714;9.472;2023-08-06T01:15:20;7.63;;;3.97;;
6412;SDS011;3239;48.714;9.472;2023-08-06T01:17:51;6.03;;;3.77;;
6412;SDS011;3239;48.714;9.472;2023-08-06T01:20:18;4.20;;;3.80;;
6412;SDS011;3239;48.714;9.472;2023-08-06T01:22:44;5.57;;;5.07;;
6412;SDS011;3239;48.714;9.472;2023-08-06T01:25:10;4.83;;;4.47;;
6412;SDS011;3239;48.714;9.472;2023-08-06T01:27:49;5.40;;;4.57;;
6412;SDS011;3239;48.714;9.472;2023-08-06T01:30:20;3.87;;;3.53;;
6412;SDS011;3239;48.714;9.472;2023-08-06T01:32:53;4.07;;;3.73;;
6412;SDS011;3239;48.714;9.472;2023-08-06T01:35:26;4.03;;;3.70;;
6412;SDS011;3239;48.714;9.472;2023-08-06T01:37:54;4.00;;;3.70;;
6412;SDS011;3239;48.714;9.472;2023-08-06T01:40:21;4.47;;;4.07;;
6412;SDS011;3239;48.714;9.472;2023-08-06T01:42:47;4.23;;;3.90;;
6412;SDS011;3239;48.714;9.472;2023-08-06T01:45:12;4.17;;;3.87;;
6412;SDS011;3239;48.714;9.472;2023-08-06T01:47:39;6.83;;;4.03;;
6412;SDS011;3239;48.714;9.472;2023-08-06T01:50:04;5.00;;;4.60;;
6412;SDS011;3239;48.714;9.472;2023-08-06T01:52:31;5.00;;;4.60;;
6412;SDS011;3239;48.714;9.472;2023-08-06T01:54:57;5.77;;;5.17;;
6412;SDS011;3239;48.714;9.472;2023-08-06T01:57:22;4.90;;;4.50;;
6412;SDS011;3239;48.714;9.472;2023-08-06T01:59:48;4.80;;;4.40;;
6412;SDS011;3239;48.714;9.472;2023-08-06T02:02:14;4.73;;;4.43;;
6412;SDS011;3239;48.714;9.472;2023-08-06T02:04:40;4.90;;;4.50;;
6412;SDS011;3239;48.714;9.472;2023-08-06T02:07:05;6.50;;;4.70;;
6412;SDS011;3239;48.714;9.472;2023-08-06T02:09:31;4.10;;;3.80;;
6412;SDS011;3239;48.714;9.472;2023-08-06T02:11:57;3.80;;;3.50;;
6412;SDS011;3239;48.714;9.472;2023-08-06T02:14:23;4.50;;;4.07;;
6412;SDS011;3239;48.714;9.472;2023-08-06T02:16:49;4.03;;;3.73;;
6412;SDS011;3239;48.714;9.472;2023-08-06T02:19:15;3.60;;;3.30;;
6412;SDS011;3239;48.714;9.472;2023-08-06T02:21:41;4.67;;;3.83;;
6412;SDS011;3239;48.714;9.472;2023-08-06T02:24:06;6.67;;;4.50;;
6412;SDS011;3239;48.714;9.472;2023-08-06T02:26:32;5.17;;;4.77;;
6412;SDS011;3239;48.714;9.472;2023-08-06T02:28:58;5.10;;;4.70;;
6412;SDS011;3239;48.714;9.472;2023-08-06T02:31:24;6.03;;;5.43;;
6412;SDS011;3239;48.714;9.472;2023-08-06T02:33:49;5.70;;;5.20;;
6412;SDS011;3239;48.714;9.472;2023-08-06T02:36:15;5.40;;;5.00;;
6412;SDS011;3239;48.714;9.472;2023-08-06T02:38:41;6.37;;;5.73;;
6412;SDS011;3239;48.714;9.472;2023-08-06T02:41:06;5.90;;;5.23;;
6412;SDS011;3239;48.714;9.472;2023-08-06T02:43:32;4.80;;;4.00;;
6412;SDS011;3239;48.714;9.472;2023-08-06T02:45:58;4.67;;;4.27;;
6412;SDS011;3239;48.714;9.472;2023-08-06T02:48:25;3.20;;;2.80;;
6412;SDS011;3239;48.714;9.472;2023-08-06T02:50:50;3.20;;;2.90;;
6412;SDS011;3239;48.714;9.472;2023-08-06T02:53:16;2.90;;;2.70;;
6412;SDS011;3239;48.714;9.472;2023-08-06T02:55:46;2.80;;;2.60;;
6412;SDS011;3239;48.714;9.472;2023-08-06T02:58:13;4.60;;;2.80;;
6412;SDS011;3239;48.714;9.472;2023-08-06T03:00:39;4.77;;;2.50;;
6412;SDS011;3239;48.714;9.472;2023-08-06T03:03:05;3.07;;;2.33;;
6412;SDS011;3239;48.714;9.472;2023-08-06T03:05:32;3.40;;;2.13;;
6412;SDS011;3239;48.714;9.472;2023-08-06T03:07:57;2.73;;;2.10;;
6412;SDS011;3239;48.714;9.472;2023-08-06T03:10:23;2.30;;;2.10;;
6412;SDS011;3239;48.714;9.472;2023-08-06T03:12:49;2.00;;;1.80;;
6412;SDS011;3239;48.714;9.472;2023-08-06T03:15:14;2.27;;;2.07;;
6412;SDS011;3239;48.714;9.472;2023-08-06T03:17:40;2.47;;;1.97;;
6412;SDS011;3239;48.714;9.472;2023-08-06T03:20:06;4.20;;;2.10;;
6412;SDS011;3239;48.714;9.472;2023-08-06T03:22:32;2.50;;;1.87;;
6412;SDS011;3239;48.714;9.472;2023-08-06T03:24:58;3.13;;;2.13;;
6412;SDS011;3239;48.714;9.472;2023-08-06T03:27:24;2.60;;;2.30;;
6412;SDS011;3239;48.714;9.472;2023-08-06T03:29:49;3.07;;;2.33;;
6412;SDS011;3239;48.714;9.472;2023-08-06T03:32:15;3.63;;;2.00;;
6412;SDS011;3239;48.714;9.472;2023-08-06T03:34:41;3.80;;;3.50;;
6412;SDS011;3239;48.714;9.472;2023-08-06T03:37:07;3.70;;;3.40;;
6412;SDS011;3239;48.714;9.472;2023-08-06T03:39:33;4.60;;;4.00;;
6412;SDS011;3239;48.714;9.472;2023-08-06T03:41:59;4.63;;;4.23;;
6412;SDS011;3239;48.714;9.472;2023-08-06T03:44:24;4.17;;;3.73;;
6412;SDS011;3239;48.714;9.472;2023-08-06T03:46:52;4.80;;;3.17;;
6412;SDS011;3239;48.714;9.472;2023-08-06T03:49:17;3.77;;;3.47;;
6412;SDS011;3239;48.714;9.472;2023-08-06T03:51:43;3.30;;;3.00;;
6412;SDS011;3239;48.714;9.472;2023-08-06T03:54:09;3.47;;;3.17;;
6412;SDS011;3239;48.714;9.472;2023-08-06T03:56:35;10.60;;;2.97;;
6412;SDS011;3239;48.714;9.472;2023-08-06T03:59:01;2.83;;;2.63;;
6412;SDS011;3239;48.714;9.472;2023-08-06T04:01:26;3.50;;;3.20;;
6412;SDS011;3239;48.714;9.472;2023-08-06T04:03:52;4.03;;;3.10;;
6412;SDS011;3239;48.714;9.472;2023-08-06T04:06:18;5.73;;;2.60;;
6412;SDS011;3239;48.714;9.472;2023-08-06T04:08:44;6.20;;;3.37;;
6412;SDS011;3239;48.714;9.472;2023-08-06T04:11:09;4.73;;;4.23;;
6412;SDS011;3239;48.714;9.472;2023-08-06T04:13:35;3.93;;;3.53;;
6412;SDS011;3239;48.714;9.472;2023-08-06T04:16:01;4.60;;;3.13;;
6412;SDS011;3239;48.714;9.472;2023-08-06T04:18:28;3.43;;;3.13;;
6412;SDS011;3239;48.714;9.472;2023-08-06T04:20:54;5.07;;;3.53;;
6412;SDS011;3239;48.714;9.472;2023-08-06T04:23:22;3.13;;;2.67;;
6412;SDS011;3239;48.714;9.472;2023-08-06T04:25:49;6.93;;;3.80;;
6412;SDS011;3239;48.714;9.472;2023-08-06T04:28:14;2.73;;;2.47;;
6412;SDS011;3239;48.714;9.472;2023-08-06T04:30:40;3.90;;;2.53;;
6412;SDS011;3239;48.714;9.472;2023-08-06T04:33:06;3.70;;;3.20;;
6412;SDS011;3239;48.714;9.472;2023-08-06T04:35:32;3.70;;;3.37;;
6412;SDS011;3239;48.714;9.472;2023-08-06T04:37:57;4.47;;;3.10;;
6412;SDS011;3239;48.714;9.472;2023-08-06T04:40:23;5.20;;;1.90;;
6412;SDS011;3239;48.714;9.472;2023-08-06T04:42:49;2.33;;;1.60;;
6412;SDS011;3239;48.714;9.472;2023-08-06T04:45:14;2.03;;;1.83;;
6412;SDS011;3239;48.714;9.472;2023-08-06T04:47:40;2.10;;;1.90;;
6412;SDS011;3239;48.714;9.472;2023-08-06T04:50:06;2.43;;;1.50;;
6412;SDS011;3239;48.714;9.472;2023-08-06T04:52:32;2.47;;;1.70;;
6412;SDS011;3239;48.714;9.472;2023-08-06T04:54:58;3.53;;;1.70;;
6412;SDS011;3239;48.714;9.472;2023-08-06T04:57:23;5.10;;;1.40;;
6412;SDS011;3239;48.714;9.472;2023-08-06T04:59:49;2.03;;;1.33;;
6412;SDS011;3239;48.714;9.472;2023-08-06T05:02:15;2.80;;;1.80;;
6412;SDS011;3239;48.714;9.472;2023-08-06T05:04:41;2.13;;;1.63;;
6412;SDS011;3239;48.714;9.472;2023-08-06T05:07:06;3.27;;;1.83;;
6412;SDS011;3239;48.714;9.472;2023-08-06T05:09:32;2.20;;;1.43;;
6412;SDS011;3239;48.714;9.472;2023-08-06T05:12:00;2.60;;;1.40;;
6412;SDS011;3239;48.714;9.472;2023-08-06T05:14:27;2.27;;;1.40;;
6412;SDS011;3239;48.714;9.472;2023-08-06T05:16:53;1.60;;;1.40;;
6412;SDS011;3239;48.714;9.472;2023-08-06T05:19:18;3.50;;;1.60;;
6412;SDS011;3239;48.714;9.472;2023-08-06T05:21:44;1.40;;;1.00;;
6412;SDS011;3239;48.714;9.472;2023-08-06T05:24:10;1.67;;;0.90;;
6412;SDS011;3239;48.714;9.472;2023-08-06T05:26:37;2.07;;;1.30;;
6412;SDS011;3239;48.714;9.472;2023-08-06T05:29:02;1.87;;;0.90;;
6412;SDS011;3239;48.714;9.472;2023-08-06T05:31:28;4.17;;;1.40;;
6412;SDS011;3239;48.714;9.472;2023-08-06T05:33:54;2.07;;;1.00;;
6412;SDS011;3239;48.714;9.472;2023-08-06T05:36:20;3.53;;;1.30;;
6412;SDS011;3239;48.714;9.472;2023-08-06T05:38:46;3.70;;;1.10;;
6412;SDS011;3239;48.714;9.472;2023-08-06T05:41:12;3.47;;;1.10;;
6412;SDS011;3239;48.714;9.472;2023-08-06T05:43:38;1.97;;;0.90;;
6412;SDS011;3239;48.714;9.472;2023-08-06T05:46:04;1.90;;;0.90;;
6412;SDS011;3239;48.714;9.472;2023-08-06T05:48:30;2.10;;;1.00;;
6412;SDS011;3239;48.714;9.472;2023-08-06T05:50:56;2.60;;;0.90;;
6412;SDS011;3239;48.714;9.472;2023-08-06T05:53:23;1.57;;;1.10;;
6412;SDS011;3239;48.714;9.472;2023-08-06T05:55:49;2.53;;;1.10;;
6412;SDS011;3239;48.714;9.472;2023-08-06T05:58:15;2.70;;;1.00;;
6412;SDS011;3239;48.714;9.472;2023-08-06T06:00:41;2.70;;;1.03;;
6412;SDS011;3239;48.714;9.472;2023-08-06T06:03:07;2.13;;;0.70;;
6412;SDS011;3239;48.714;9.472;2023-08-06T06:05:33;2.80;;;1.00;;
6412;SDS011;3239;48.714;9.472;2023-08-06T06:07:58;2.60;;;0.70;;
6412;SDS011;3239;48.714;9.472;2023-08-06T06:10:24;2.20;;;0.70;;
6412;SDS011;3239;48.714;9.472;2023-08-06T06:12:50;2.20;;;0.80;;
6412;SDS011;3239;48.714;9.472;2023-08-06T06:15:16;1.10;;;0.60;;
6412;SDS011;3239;48.714;9.472;2023-08-06T06:17:42;1.90;;;0.70;;
6412;SDS011;3239;48.714;9.472;2023-08-06T06:20:08;1.80;;;0.80;;
6412;SDS011;3239;48.714;9.472;2023-08-06T06:22:34;2.07;;;0.80;;
6412;SDS011;3239;48.714;9.472;2023-08-06T06:25:00;2.30;;;1.10;;
6412;SDS011;3239;48.714;9.472;2023-08-06T06:27:25;2.00;;;0.90;;
6412;SDS011;3239;48.714;9.472;2023-08-06T06:29:51;2.17;;;0.60;;
6412;SDS011;3239;48.714;9.472;2023-08-06T06:32:17;2.73;;;1.13;;
6412;SDS011;3239;48.714;9.472;2023-08-06T06:34:43;2.13;;;0.70;;
6412;SDS011;3239;48.714;9.472;2023-08-06T06:37:09;3.00;;;0.93;;
6412;SDS011;3239;48.714;9.472;2023-08-06T06:39:34;2.13;;;0.70;;
6412;SDS011;3239;48.714;9.472;2023-08-06T06:42:00;5.93;;;1.17;;
6412;SDS011;3239;48.714;9.472;2023-08-06T06:44:27;3.37;;;0.70;;
6412;SDS011;3239;48.714;9.472;2023-08-06T06:46:53;2.90;;;0.80;;
6412;SDS011;3239;48.714;9.472;2023-08-06T06:49:18;1.90;;;0.80;;
6412;SDS011;3239;48.714;9.472;2023-08-06T06:51:44;1.50;;;0.60;;
6412;SDS011;3239;48.714;9.472;2023-08-06T06:54:10;1.00;;;0.50;;
6412;SDS011;3239;48.714;9.472;2023-08-06T06:56:36;1.40;;;0.60;;
6412;SDS011;3239;48.714;9.472;2023-08-06T06:59:02;2.43;;;0.57;;
6412;SDS011;3239;48.714;9.472;2023-08-06T07:01:28;1.73;;;1.07;;
6412;SDS011;3239;48.714;9.472;2023-08-06T07:03:53;1.40;;;0.60;;
6412;SDS011;3239;48.714;9.472;2023-08-06T07:06:19;3.83;;;0.50;;
6412;SDS011;3239;48.714;9.472;2023-08-06T07:08:45;3.07;;;1.03;;
6412;SDS011;3239;48.714;9.472;2023-08-06T07:11:11;1.87;;;0.50;;
6412;SDS011;3239;48.714;9.472;2023-08-06T07:13:37;2.97;;;0.67;;
6412;SDS011;3239;48.714;9.472;2023-08-06T07:16:02;1.00;;;0.53;;
6412;SDS011;3239;48.714;9.472;2023-08-06T07:18:28;1.17;;;0.50;;
6412;SDS011;3239;48.714;9.472;2023-08-06T07:20:54;2.30;;;0.50;;
6412;SDS011;3239;48.714;9.472;2023-08-06T07:23:21;2.40;;;0.60;;
6412;SDS011;3239;48.714;9.472;2023-08-06T07:25:49;0.87;;;0.40;;
6412;SDS011;3239;48.714;9.472;2023-08-06T07:28:15;1.23;;;0.60;;
6412;SDS011;3239;48.714;9.472;2023-08-06T07:30:42;1.43;;;0.57;;
6412;SDS011;3239;48.714;9.472;2023-08-06T07:33:09;1.30;;;0.40;;
6412;SDS011;3239;48.714;9.472;2023-08-06T07:35:35;1.53;;;0.53;;
6412;SDS011;3239;48.714;9.472;2023-08-06T07:38:02;0.90;;;0.40;;
6412;SDS011;3239;48.714;9.472;2023-08-06T07:40:28;1.37;;;0.50;;
6412;SDS011;3239;48.714;9.472;2023-08-06T07:42:54;1.20;;;0.40;;
6412;SDS011;3239;48.714;9.472;2023-08-06T07:45:20;0.93;;;0.40;;
6412;SDS011;3239;48.714;9.472;2023-08-06T07:47:46;1.43;;;0.40;;
6412;SDS011;3239;48.714;9.472;2023-08-06T07:50:12;1.57;;;0.43;;
6412;SDS011;3239;48.714;9.472;2023-08-06T07:52:39;1.10;;;0.40;;
6412;SDS011;3239;48.714;9.472;2023-08-06T07:55:05;2.40;;;0.50;;
6412;SDS011;3239;48.714;9.472;2023-08-06T07:57:31;1.17;;;0.50;;
6412;SDS011;3239;48.714;9.472;2023-08-06T07:59:57;1.60;;;0.50;;
6412;SDS011;3239;48.714;9.472;2023-08-06T08:02:23;1.67;;;0.50;;
6412;SDS011;3239;48.714;9.472;2023-08-06T08:04:49;1.10;;;0.50;;
6412;SDS011;3239;48.714;9.472;2023-08-06T08:07:15;2.20;;;0.57;;
6412;SDS011;3239;48.714;9.472;2023-08-06T08:09:40;1.10;;;0.50;;
6412;SDS011;3239;48.714;9.472;2023-08-06T08:12:06;1.40;;;0.50;;
6412;SDS011;3239;48.714;9.472;2023-08-06T08:14:32;1.40;;;0.50;;
6412;SDS011;3239;48.714;9.472;2023-08-06T08:17:01;1.10;;;0.50;;
6412;SDS011;3239;48.714;9.472;2023-08-06T08:19:28;1.03;;;0.50;;
6412;SDS011;3239;48.714;9.472;2023-08-06T08:21:54;1.03;;;0.40;;
6412;SDS011;3239;48.714;9.472;2023-08-06T08:24:20;2.57;;;0.47;;
6412;SDS011;3239;48.714;9.472;2023-08-06T08:26:49;1.40;;;0.47;;
6412;SDS011;3239;48.714;9.472;2023-08-06T08:29:20;2.90;;;0.40;;
6412;SDS011;3239;48.714;9.472;2023-08-06T08:31:47;0.80;;;0.40;;
6412;SDS011;3239;48.714;9.472;2023-08-06T08:34:15;1.13;;;0.40;;
6412;SDS011;3239;48.714;9.472;2023-08-06T08:36:41;0.80;;;0.40;;
6412;SDS011;3239;48.714;9.472;2023-08-06T08:39:08;0.70;;;0.33;;
6412;SDS011;3239;48.714;9.472;2023-08-06T08:41:34;1.17;;;0.40;;
6412;SDS011;3239;48.714;9.472;2023-08-06T08:44:02;1.70;;;0.50;;
6412;SDS011;3239;48.714;9.472;2023-08-06T08:46:30;2.03;;;0.30;;
6412;SDS011;3239;48.714;9.472;2023-08-06T08:48:57;1.00;;;0.30;;
6412;SDS011;3239;48.714;9.472;2023-08-06T08:51:25;0.73;;;0.37;;
6412;SDS011;3239;48.714;9.472;2023-08-06T08:53:53;0.70;;;0.30;;
6412;SDS011;3239;48.714;9.472;2023-08-06T08:56:21;3.27;;;0.47;;
6412;SDS011;3239;48.714;9.472;2023-08-06T08:58:47;1.20;;;0.30;;
6412;SDS011;3239;48.714;9.472;2023-08-06T09:01:14;1.77;;;0.40;;
6412;SDS011;3239;48.714;9.472;2023-08-06T09:03:40;1.30;;;0.50;;
6412;SDS011;3239;48.714;9.472;2023-08-06T09:06:08;1.00;;;0.40;;
6412;SDS011;3239;48.714;9.472;2023-08-06T09:08:39;1.20;;;0.30;;
6412;SDS011;3239;48.714;9.472;2023-08-06T09:11:15;1.07;;;0.40;;
6412;SDS011;3239;48.714;9.472;2023-08-06T09:13:42;1.20;;;0.30;;
6412;SDS011;3239;48.714;9.472;2023-08-06T09:16:08;1.33;;;0.40;;
6412;SDS011;3239;48.714;9.472;2023-08-06T09:18:33;3.83;;;0.30;;
6412;SDS011;3239;48.714;9.472;2023-08-06T09:20:59;1.00;;;0.50;;
6412;SDS011;3239;48.714;9.472;2023-08-06T09:23:29;1.00;;;0.40;;
6412;SDS011;3239;48.714;9.472;2023-08-06T09:25:56;0.70;;;0.33;;
6412;SDS011;3239;48.714;9.472;2023-08-06T09:28:23;0.70;;;0.40;;
6412;SDS011;3239;48.714;9.472;2023-08-06T09:30:49;0.70;;;0.30;;
6412;SDS011;3239;48.714;9.472;2023-08-06T09:33:20;0.70;;;0.30;;
6412;SDS011;3239;48.714;9.472;2023-08-06T09:35:48;2.90;;;0.30;;
6412;SDS011;3239;48.714;9.472;2023-08-06T09:38:13;1.20;;;0.30;;
6412;SDS011;3239;48.714;9.472;2023-08-06T09:40:40;0.60;;;0.30;;
6412;SDS011;3239;48.714;9.472;2023-08-06T09:43:05;0.60;;;0.30;;
6412;SDS011;3239;48.714;9.472;2023-08-06T09:45:35;0.80;;;0.40;;
6412;SDS011;3239;48.714;9.472;2023-08-06T09:48:06;0.70;;;0.30;;
6412;SDS011;3239;48.714;9.472;2023-08-06T09:50:34;2.30;;;0.40;;
6412;SDS011;3239;48.714;9.472;2023-08-06T09:53:03;1.47;;;0.30;;
6412;SDS011;3239;48.714;9.472;2023-08-06T09:55:30;0.70;;;0.30;;
6412;SDS011;3239;48.714;9.472;2023-08-06T09:57:58;0.97;;;0.30;;
6412;SDS011;3239;48.714;9.472;2023-08-06T10:00:24;0.73;;;0.30;;
6412;SDS011;3239;48.714;9.472;2023-08-06T10:02:51;0.90;;;0.30;;
6412;SDS011;3239;48.714;9.472;2023-08-06T10:05:21;0.70;;;0.30;;
6412;SDS011;3239;48.714;9.472;2023-08-06T10:07:48;0.67;;;0.30;;
6412;SDS011;3239;48.714;9.472;2023-08-06T10:10:17;0.70;;;0.30;;
6412;SDS011;3239;48.714;9.472;2023-08-06T10:12:51;0.73;;;0.40;;
6412;SDS011;3239;48.714;9.472;2023-08-06T10:15:22;1.10;;;0.30;;
6412;SDS011;3239;48.714;9.472;2023-08-06T10:17:53;1.27;;;0.30;;
6412;SDS011;3239;48.714;9.472;2023-08-06T10:20:23;0.70;;;0.40;;
6412;SDS011;3239;48.714;9.472;2023-08-06T10:23:05;0.70;;;0.30;;
6412;SDS011;3239;48.714;9.472;2023-08-06T10:25:34;0.70;;;0.40;;
6412;SDS011;3239;48.714;9.472;2023-08-06T10:28:07;0.80;;;0.30;;
6412;SDS011;3239;48.714;9.472;2023-08-06T10:33:12;0.70;;;0.30;;
6412;SDS011;3239;48.714;9.472;2023-08-06T10:35:45;0.60;;;0.30;;
6412;SDS011;3239;48.714;9.472;2023-08-06T10:38:16;0.80;;;0.30;;
6412;SDS011;3239;48.714;9.472;2023-08-06T10:40:52;1.00;;;0.30;;
6412;SDS011;3239;48.714;9.472;2023-08-06T10:43:32;0.70;;;0.30;;
6412;SDS011;3239;48.714;9.472;2023-08-06T10:46:00;0.90;;;0.30;;
6412;SDS011;3239;48.714;9.472;2023-08-06T10:48:30;0.80;;;0.30;;
6412;SDS011;3239;48.714;9.472;2023-08-06T10:51:00;0.80;;;0.30;;
6412;SDS011;3239;48.714;9.472;2023-08-06T10:53:29;0.90;;;0.30;;
6412;SDS011;3239;48.714;9.472;2023-08-06T10:55:56;4.53;;;0.40;;
6412;SDS011;3239;48.714;9.472;2023-08-06T10:58:22;1.70;;;0.40;;
6412;SDS011;3239;48.714;9.472;2023-08-06T11:00:48;0.90;;;0.40;;
6412;SDS011;3239;48.714;9.472;2023-08-06T11:03:14;2.10;;;0.30;;
6412;SDS011;3239;48.714;9.472;2023-08-06T11:05:40;0.70;;;0.30;;
6412;SDS011;3239;48.714;9.472;2023-08-06T11:08:06;0.90;;;0.40;;
6412;SDS011;3239;48.714;9.472;2023-08-06T11:10:34;0.60;;;0.30;;
6412;SDS011;3239;48.714;9.472;2023-08-06T11:13:00;2.40;;;0.40;;
6412;SDS011;3239;48.714;9.472;2023-08-06T11:15:28;0.93;;;0.30;;
6412;SDS011;3239;48.714;9.472;2023-08-06T11:17:56;1.97;;;0.40;;
6412;SDS011;3239;48.714;9.472;2023-08-06T11:20:21;0.90;;;0.30;;
6412;SDS011;3239;48.714;9.472;2023-08-06T11:22:48;0.90;;;0.40;;
6412;SDS011;3239;48.714;9.472;2023-08-06T11:25:13;0.70;;;0.30;;
6412;SDS011;3239;48.714;9.472;2023-08-06T11:27:39;0.60;;;0.30;;
6412;SDS011;3239;48.714;9.472;2023-08-06T11:30:05;0.63;;;0.30;;
6412;SDS011;3239;48.714;9.472;2023-08-06T11:32:31;1.60;;;0.40;;
6412;SDS011;3239;48.714;9.472;2023-08-06T11:34:58;1.07;;;0.40;;
6412;SDS011;3239;48.714;9.472;2023-08-06T11:37:24;1.97;;;0.50;;
6412;SDS011;3239;48.714;9.472;2023-08-06T11:39:50;1.50;;;0.40;;
6412;SDS011;3239;48.714;9.472;2023-08-06T11:42:17;0.93;;;0.47;;
6412;SDS011;3239;48.714;9.472;2023-08-06T11:44:43;0.80;;;0.40;;
6412;SDS011;3239;48.714;9.472;2023-08-06T11:47:12;4.00;;;0.30;;
6412;SDS011;3239;48.714;9.472;2023-08-06T11:49:41;0.80;;;0.30;;
6412;SDS011;3239;48.714;9.472;2023-08-06T11:52:18;0.70;;;0.37;;
6412;SDS011;3239;48.714;9.472;2023-08-06T11:55:07;1.03;;;0.40;;
6412;SDS011;3239;48.714;9.472;2023-08-06T11:57:37;0.80;;;0.30;;
6412;SDS011;3239;48.714;9.472;2023-08-06T12:00:08;0.80;;;0.33;;
6412;SDS011;3239;48.714;9.472;2023-08-06T12:02:39;1.10;;;0.50;;
6412;SDS011;3239;48.714;9.472;2023-08-06T12:07:41;1.47;;;0.53;;
6412;SDS011;3239;48.714;9.472;2023-08-06T12:10:11;0.80;;;0.50;;
6412;SDS011;3239;48.714;9.472;2023-08-06T12:12:38;0.90;;;0.57;;
6412;SDS011;3239;48.714;9.472;2023-08-06T12:15:04;0.90;;;0.43;;
6412;SDS011;3239;48.714;9.472;2023-08-06T12:17:32;4.73;;;0.80;;
6412;SDS011;3239;48.714;9.472;2023-08-06T12:19:58;1.23;;;0.50;;
6412;SDS011;3239;48.714;9.472;2023-08-06T12:22:24;1.63;;;0.60;;
6412;SDS011;3239;48.714;9.472;2023-08-06T12:24:50;1.57;;;0.60;;
6412;SDS011;3239;48.714;9.472;2023-08-06T12:27:16;1.07;;;0.57;;
6412;SDS011;3239;48.714;9.472;2023-08-06T12:29:45;1.13;;;0.50;;
6412;SDS011;3239;48.714;9.472;2023-08-06T12:32:12;1.30;;;0.60;;
6412;SDS011;3239;48.714;9.472;2023-08-06T12:34:39;2.13;;;0.60;;
6412;SDS011;3239;48.714;9.472;2023-08-06T12:37:07;1.13;;;0.57;;
6412;SDS011;3239;48.714;9.472;2023-08-06T12:39:33;1.10;;;0.60;;
6412;SDS011;3239;48.714;9.472;2023-08-06T12:42:00;1.67;;;0.70;;
6412;SDS011;3239;48.714;9.472;2023-08-06T12:44:27;1.10;;;0.70;;
6412;SDS011;3239;48.714;9.472;2023-08-06T12:46:53;1.47;;;0.70;;
6412;SDS011;3239;48.714;9.472;2023-08-06T12:49:20;1.20;;;0.50;;
6412;SDS011;3239;48.714;9.472;2023-08-06T12:51:50;2.37;;;0.57;;
6412;SDS011;3239;48.714;9.472;2023-08-06T12:54:16;2.50;;;0.60;;
6412;SDS011;3239;48.714;9.472;2023-08-06T12:56:43;4.83;;;0.70;;
6412;SDS011;3239;48.714;9.472;2023-08-06T12:59:10;1.00;;;0.70;;
6412;SDS011;3239;48.714;9.472;2023-08-06T13:01:39;2.43;;;0.50;;
6412;SDS011;3239;48.714;9.472;2023-08-06T13:04:05;1.10;;;0.60;;
6412;SDS011;3239;48.714;9.472;2023-08-06T13:06:31;0.90;;;0.50;;
6412;SDS011;3239;48.714;9.472;2023-08-06T13:09:02;2.40;;;0.60;;
6412;SDS011;3239;48.714;9.472;2023-08-06T13:11:33;1.63;;;0.67;;
6412;SDS011;3239;48.714;9.472;2023-08-06T13:14:07;0.90;;;0.50;;
6412;SDS011;3239;48.714;9.472;2023-08-06T13:16:37;1.00;;;0.60;;
6412;SDS011;3239;48.714;9.472;2023-08-06T13:19:05;1.67;;;0.50;;
6412;SDS011;3239;48.714;9.472;2023-08-06T13:24:06;1.03;;;0.60;;
6412;SDS011;3239;48.714;9.472;2023-08-06T13:26:32;1.10;;;0.57;;
6412;SDS011;3239;48.714;9.472;2023-08-06T13:28:58;1.30;;;0.53;;
6412;SDS011;3239;48.714;9.472;2023-08-06T13:31:25;1.00;;;0.50;;
6412;SDS011;3239;48.714;9.472;2023-08-06T13:33:51;1.00;;;0.70;;
6412;SDS011;3239;48.714;9.472;2023-08-06T13:36:20;1.40;;;0.67;;
6412;SDS011;3239;48.714;9.472;2023-08-06T13:38:47;2.17;;;0.60;;
6412;SDS011;3239;48.714;9.472;2023-08-06T13:41:13;1.30;;;0.60;;
6412;SDS011;3239;48.714;9.472;2023-08-06T13:43:39;1.00;;;0.60;;
6412;SDS011;3239;48.714;9.472;2023-08-06T13:46:04;1.10;;;0.50;;
6412;SDS011;3239;48.714;9.472;2023-08-06T13:48:30;1.00;;;0.60;;
6412;SDS011;3239;48.714;9.472;2023-08-06T13:50:56;0.90;;;0.50;;
6412;SDS011;3239;48.714;9.472;2023-08-06T13:53:22;1.67;;;0.80;;
6412;SDS011;3239;48.714;9.472;2023-08-06T13:55:47;0.93;;;0.57;;
6412;SDS011;3239;48.714;9.472;2023-08-06T13:58:13;1.20;;;0.50;;
6412;SDS011;3239;48.714;9.472;2023-08-06T14:00:39;0.80;;;0.43;;
6412;SDS011;3239;48.714;9.472;2023-08-06T14:03:04;2.23;;;0.60;;
6412;SDS011;3239;48.714;9.472;2023-08-06T14:05:30;2.37;;;0.70;;
6412;SDS011;3239;48.714;9.472;2023-08-06T14:07:57;0.80;;;0.50;;
6412;SDS011;3239;48.714;9.472;2023-08-06T14:10:23;2.50;;;0.53;;
6412;SDS011;3239;48.714;9.472;2023-08-06T14:12:49;0.90;;;0.40;;
6412;SDS011;3239;48.714;9.472;2023-08-06T14:15:14;1.10;;;0.40;;
6412;SDS011;3239;48.714;9.472;2023-08-06T14:17:40;2.10;;;0.73;;
6412;SDS011;3239;48.714;9.472;2023-08-06T14:20:06;0.90;;;0.43;;
6412;SDS011;3239;48.714;9.472;2023-08-06T14:22:36;1.03;;;0.40;;
6412;SDS011;3239;48.714;9.472;2023-08-06T14:25:02;1.17;;;0.60;;
6412;SDS011;3239;48.714;9.472;2023-08-06T14:27:29;1.20;;;0.40;;
6412;SDS011;3239;48.714;9.472;2023-08-06T14:29:55;1.00;;;0.40;;
6412;SDS011;3239;48.714;9.472;2023-08-06T14:32:20;1.33;;;0.60;;
6412;SDS011;3239;48.714;9.472;2023-08-06T14:34:46;0.90;;;0.40;;
6412;SDS011;3239;48.714;9.472;2023-08-06T14:37:12;1.87;;;0.73;;
6412;SDS011;3239;48.714;9.472;2023-08-06T14:39:38;2.50;;;0.70;;
6412;SDS011;3239;48.714;9.472;2023-08-06T14:42:04;2.50;;;0.50;;
6412;SDS011;3239;48.714;9.472;2023-08-06T14:44:30;1.20;;;0.70;;
6412;SDS011;3239;48.714;9.472;2023-08-06T14:46:56;1.40;;;0.50;;
6412;SDS011;3239;48.714;9.472;2023-08-06T14:49:22;3.83;;;0.67;;
6412;SDS011;3239;48.714;9.472;2023-08-06T14:51:48;1.53;;;0.80;;
6412;SDS011;3239;48.714;9.472;2023-08-06T14:54:14;1.43;;;0.57;;
6412;SDS011;3239;48.714;9.472;2023-08-06T14:56:40;1.20;;;0.50;;
6412;SDS011;3239;48.714;9.472;2023-08-06T14:59:06;1.53;;;0.47;;
6412;SDS011;3239;48.714;9.472;2023-08-06T15:01:32;1.10;;;0.50;;
6412;SDS011;3239;48.714;9.472;2023-08-06T15:03:59;5.43;;;0.47;;
6412;SDS011;3239;48.714;9.472;2023-08-06T15:06:24;0.90;;;0.50;;
6412;SDS011;3239;48.714;9.472;2023-08-06T15:08:50;1.13;;;0.40;;
6412;SDS011;3239;48.714;9.472;2023-08-06T15:11:16;4.20;;;0.50;;
6412;SDS011;3239;48.714;9.472;2023-08-06T15:13:42;2.20;;;0.60;;
6412;SDS011;3239;48.714;9.472;2023-08-06T15:16:08;1.93;;;0.77;;
6412;SDS011;3239;48.714;9.472;2023-08-06T15:18:33;2.33;;;0.70;;
6412;SDS011;3239;48.714;9.472;2023-08-06T15:21:00;1.33;;;0.60;;
6412;SDS011;3239;48.714;9.472;2023-08-06T15:23:25;1.10;;;0.50;;
6412;SDS011;3239;48.714;9.472;2023-08-06T15:25:51;0.80;;;0.40;;